createdAt,value
2023-01-13T00:21:21.285Z,1008.3
2023-01-13T01:02:00.614Z,1008.1
2023-01-13T01:16:54.929Z,1007.8
2023-01-13T02:46:30.783Z,1008.5
2023-01-13T03:03:30.781Z,1008.5
2023-01-13T03:18:14.644Z,1008.4
2023-01-13T03:33:10.562Z,1008.2
2023-01-13T03:48:06.736Z,1008.3
2023-01-13T03:53:39.631Z,1008.5
2023-01-13T04:08:34.445Z,1007.9
2023-01-13T04:23:30.757Z,1008.2
2023-01-13T04:39:29.214Z,1008.5
2023-01-13T04:58:46.698Z,1008.4
2023-01-13T05:13:40.994Z,1008.3
2023-01-13T05:28:36.989Z,1008.3
2023-01-13T05:43:33.193Z,1008.5
2023-01-13T05:58:29.486Z,1008.5
2023-01-13T06:13:25.108Z,1008.9
2023-01-13T06:25:48.375Z,1009.1
2023-01-13T06:44:54.616Z,1009.2
2023-01-13T06:59:50.531Z,1009.3
2023-01-13T07:14:44.653Z,1009.6
2023-01-13T08:02:19.364Z,1009.7
2023-01-13T08:17:13.040Z,1010
2023-01-13T08:36:26.740Z,1010.2
2023-01-13T08:51:14.835Z,1010.2
2023-01-13T09:06:03.708Z,1010.3
2023-01-13T09:21:59.498Z,1010.5
2023-01-13T09:42:07.430Z,1010.8
2023-01-13T09:56:55.746Z,1010.6
2023-01-13T10:12:48.233Z,1010.8
2023-01-13T10:47:03.802Z,1010.6
2023-01-13T12:15:56.831Z,1011
2023-01-13T12:41:17.476Z,1011.3
2023-01-13T12:56:11.182Z,1011.3
2023-01-13T13:14:18.592Z,1011.5
2023-01-13T13:31:18.677Z,1011.4
2023-01-13T13:46:13.310Z,1011.6
2023-01-13T14:17:51.307Z,1012.3
2023-01-13T14:44:17.399Z,1012.6
2023-01-13T15:09:46.623Z,1013.3
2023-01-13T15:24:40.172Z,1013.5
2023-01-13T15:39:35.945Z,1013.6
2023-01-13T15:54:31.892Z,1013.8
2023-01-13T16:09:28.136Z,1013.8
2023-01-13T16:24:24.598Z,1014
2023-01-13T16:39:20.684Z,1014.2
2023-01-13T16:54:17.440Z,1014.5
2023-01-13T17:09:13.146Z,1014.8
2023-01-13T17:24:09.121Z,1015
2023-01-13T17:39:05.188Z,1015.2
2023-01-13T17:54:01.519Z,1015.5
2023-01-13T18:08:57.711Z,1015.7
2023-01-13T18:23:53.388Z,1016
2023-01-13T18:38:49.502Z,1016.1
2023-01-13T18:53:45.726Z,1016.5
2023-01-13T19:08:42.568Z,1016.7
2023-01-13T19:23:38.664Z,1016.7
2023-01-13T19:38:34.950Z,1016.9
2023-01-13T19:53:31.196Z,1017.1
2023-01-13T20:08:27.178Z,1017.2
2023-01-13T20:23:23.446Z,1017.3
2023-01-13T20:38:19.740Z,1017.4
2023-01-13T21:08:11.787Z,1017.6
2023-01-13T21:23:07.890Z,1017.7
2023-01-13T21:53:00.660Z,1017.7
2023-01-13T22:07:56.405Z,1017.9
2023-01-13T22:22:52.235Z,1018.1
2023-01-13T22:37:47.872Z,1018.1
2023-01-13T22:52:43.825Z,1018.3
2023-01-13T23:07:39.749Z,1018.4
2023-01-13T23:22:35.417Z,1018.6
2023-01-13T23:37:30.967Z,1018.6
2023-01-13T23:52:26.780Z,1018.8
